createdAt,value
2023-01-13T02:02:52.649Z,23.28
2023-01-13T02:13:52.264Z,23.28
2023-01-13T02:14:52.243Z,23.31
2023-01-13T02:15:52.195Z,23.31
2023-01-13T02:16:52.154Z,23.26
2023-01-13T02:17:52.097Z,23.27
2023-01-13T02:18:52.091Z,23.26
2023-01-13T02:19:52.031Z,23.25
2023-01-13T02:20:51.995Z,23.30
2023-01-13T02:21:51.979Z,23.23
2023-01-13T02:22:51.940Z,23.23
2023-01-13T02:23:51.892Z,23.24
2023-01-13T02:24:51.851Z,23.25
2023-01-13T02:25:51.807Z,23.25
2023-01-13T02:26:51.770Z,23.29
2023-01-13T02:27:51.751Z,23.28
2023-01-13T02:28:51.689Z,23.29
2023-01-13T02:29:51.653Z,23.31
2023-01-13T02:30:51.625Z,23.28
2023-01-13T02:31:51.609Z,23.28
2023-01-13T02:32:51.563Z,23.30
2023-01-13T02:33:51.508Z,23.27
2023-01-13T02:34:51.475Z,23.27
2023-01-13T02:35:51.428Z,23.29
2023-01-13T02:36:51.381Z,23.26
2023-01-13T02:37:51.346Z,23.27
2023-01-13T02:38:51.330Z,23.28
2023-01-13T02:39:51.276Z,23.27
2023-01-13T02:40:51.239Z,23.31
2023-01-13T02:41:51.199Z,23.27
2023-01-13T02:42:51.146Z,23.29
2023-01-13T02:43:51.112Z,23.27
2023-01-13T02:44:51.063Z,23.26
2023-01-13T02:45:51.078Z,23.28
2023-01-13T02:46:51.001Z,23.31
2023-01-13T02:47:50.952Z,23.29
2023-01-13T02:48:50.921Z,23.25
2023-01-13T02:49:50.894Z,23.27
2023-01-13T02:50:50.853Z,23.31
2023-01-13T02:51:50.807Z,23.28
2023-01-13T02:52:50.774Z,23.28
2023-01-13T02:53:50.744Z,23.26
2023-01-13T02:54:50.713Z,23.27
2023-01-13T02:55:50.677Z,23.31
2023-01-13T02:56:50.646Z,23.31
2023-01-13T02:57:50.594Z,23.31
2023-01-13T02:58:50.560Z,23.25
2023-01-13T02:59:50.523Z,23.29
2023-01-13T03:00:50.531Z,23.31
2023-01-13T03:01:50.744Z,23.32
2023-01-13T03:02:50.493Z,23.29
2023-01-13T03:03:50.388Z,23.28
2023-01-13T03:04:50.347Z,23.26
2023-01-13T03:05:50.315Z,23.30
2023-01-13T03:06:50.274Z,23.29
2023-01-13T03:07:50.237Z,23.31
2023-01-13T03:08:50.211Z,23.29
2023-01-13T03:09:50.174Z,23.28
2023-01-13T03:10:50.136Z,23.34
2023-01-13T03:11:50.114Z,23.29
2023-01-13T03:12:50.073Z,23.33
2023-01-13T03:13:50.091Z,23.29
2023-01-13T03:14:50.010Z,23.35
2023-01-13T03:15:49.976Z,23.26
2023-01-13T03:16:50.008Z,23.27
2023-01-13T03:17:49.941Z,23.27
2023-01-13T03:18:49.874Z,23.32
2023-01-13T03:19:49.818Z,23.31
2023-01-13T03:20:49.784Z,23.28
2023-01-13T03:21:49.748Z,23.30
2023-01-13T03:22:49.726Z,23.29
2023-01-13T03:23:49.666Z,23.29
2023-01-13T03:24:49.633Z,23.32
2023-01-13T03:25:49.603Z,23.35
2023-01-13T03:26:49.572Z,23.33
2023-01-13T03:27:49.537Z,23.29
2023-01-13T03:28:49.490Z,23.31
2023-01-13T03:29:49.461Z,23.33
2023-01-13T03:30:49.465Z,23.33
2023-01-13T03:31:49.386Z,23.33
2023-01-13T03:32:49.335Z,23.31
2023-01-13T03:33:49.291Z,23.33
2023-01-13T03:34:49.268Z,23.38
2023-01-13T03:35:49.207Z,23.37
2023-01-13T03:36:49.178Z,23.32
2023-01-13T03:37:49.123Z,23.34
2023-01-13T03:38:49.115Z,23.33
2023-01-13T03:39:49.063Z,23.33
2023-01-13T03:40:49.010Z,23.30
2023-01-13T03:41:48.967Z,23.34
2023-01-13T03:42:48.924Z,23.34
2023-01-13T03:43:48.892Z,23.33
2023-01-13T03:44:48.862Z,23.30
2023-01-13T03:45:48.848Z,23.32
2023-01-13T03:46:48.763Z,23.33
2023-01-13T03:47:48.731Z,23.35
2023-01-13T03:48:48.706Z,23.29
2023-01-13T03:49:48.681Z,23.30
2023-01-13T03:50:48.612Z,23.29
2023-01-13T03:51:48.567Z,23.32
2023-01-13T03:52:48.539Z,23.31
2023-01-13T03:53:48.500Z,23.27
2023-01-13T03:54:48.473Z,23.27
2023-01-13T03:55:48.436Z,23.27
2023-01-13T03:56:48.374Z,23.28
2023-01-13T03:57:48.375Z,23.30
2023-01-13T03:58:48.301Z,23.29
2023-01-13T03:59:48.279Z,23.28
2023-01-13T04:00:48.256Z,23.29
2023-01-13T04:01:48.417Z,23.27
2023-01-13T04:02:48.173Z,23.26
2023-01-13T04:03:48.183Z,23.25
2023-01-13T04:04:48.155Z,23.27
2023-01-13T04:05:48.113Z,23.29
2023-01-13T04:07:48.072Z,23.28
2023-01-13T04:08:47.960Z,23.29
2023-01-13T04:09:47.940Z,23.30
2023-01-13T04:10:47.921Z,23.26
2023-01-13T04:11:47.877Z,23.28
2023-01-13T04:12:47.826Z,23.24
2023-01-13T04:13:47.793Z,23.30
2023-01-13T04:14:47.761Z,23.29
2023-01-13T04:15:47.756Z,23.29
2023-01-13T04:16:47.702Z,23.25
2023-01-13T04:17:47.656Z,23.26
2023-01-13T04:18:47.622Z,23.28
2023-01-13T04:19:47.591Z,23.23
2023-01-13T04:20:47.564Z,23.25
2023-01-13T04:21:47.504Z,23.24
2023-01-13T04:22:47.479Z,23.23
2023-01-13T04:23:47.431Z,23.19
2023-01-13T04:24:47.396Z,23.23
2023-01-13T04:25:47.354Z,23.23
2023-01-13T04:26:47.322Z,23.20
2023-01-13T04:27:47.265Z,23.24
2023-01-13T04:28:47.237Z,23.22
2023-01-13T04:29:47.193Z,23.24
2023-01-13T04:30:47.283Z,23.23
2023-01-13T04:31:47.110Z,23.19
2023-01-13T04:32:47.085Z,23.22
2023-01-13T04:33:47.074Z,23.19
2023-01-13T04:34:47.004Z,23.21
2023-01-13T04:35:46.973Z,23.21
2023-01-13T04:36:46.960Z,23.24
2023-01-13T04:37:46.910Z,23.20
2023-01-13T04:38:46.869Z,23.21
2023-01-13T04:39:46.836Z,23.23
2023-01-13T04:40:46.806Z,23.18
2023-01-13T04:41:46.778Z,23.17
2023-01-13T04:42:46.722Z,23.20
2023-01-13T04:43:46.703Z,23.23
2023-01-13T04:44:46.647Z,23.23
2023-01-13T04:45:46.620Z,23.20
2023-01-13T04:46:46.586Z,23.20
2023-01-13T04:47:46.543Z,23.20
2023-01-13T04:48:46.514Z,23.21
2023-01-13T04:49:46.489Z,23.19
2023-01-13T04:50:46.457Z,23.16
2023-01-13T04:51:46.403Z,23.17
2023-01-13T04:52:46.386Z,23.19
2023-01-13T04:53:46.353Z,23.18
2023-01-13T04:54:46.311Z,23.17
2023-01-13T04:55:46.262Z,23.20
2023-01-13T04:56:46.229Z,23.18
2023-01-13T04:57:46.194Z,23.19
2023-01-13T04:58:46.168Z,23.20
2023-01-13T04:59:46.133Z,23.22
2023-01-13T05:00:46.127Z,23.21
2023-01-13T05:01:46.251Z,23.20
2023-01-13T05:02:46.059Z,23.18
2023-01-13T05:03:46.028Z,23.21
2023-01-13T05:04:46.055Z,23.18
2023-01-13T05:05:45.962Z,23.16
2023-01-13T05:06:45.937Z,23.15
2023-01-13T05:07:45.901Z,23.17
2023-01-13T05:08:45.890Z,23.18
2023-01-13T05:09:45.847Z,23.18
2023-01-13T05:10:45.836Z,23.20
2023-01-13T05:11:45.795Z,23.20
2023-01-13T05:12:45.759Z,23.17
2023-01-13T05:13:45.729Z,23.18
2023-01-13T05:14:45.701Z,23.18
2023-01-13T05:15:45.697Z,23.18
2023-01-13T05:16:45.633Z,23.18
2023-01-13T05:17:45.603Z,23.17
2023-01-13T05:18:45.540Z,23.19
2023-01-13T05:19:45.507Z,23.18
2023-01-13T05:20:45.473Z,23.18
2023-01-13T05:21:45.438Z,23.16
2023-01-13T05:22:45.401Z,23.21
2023-01-13T05:23:45.377Z,23.17
2023-01-13T05:24:45.325Z,23.18
2023-01-13T05:25:45.308Z,23.18
2023-01-13T05:26:45.292Z,23.18
2023-01-13T05:27:45.255Z,23.19
2023-01-13T05:28:45.215Z,23.23
2023-01-13T05:29:45.177Z,23.23
2023-01-13T05:30:45.144Z,23.20
2023-01-13T05:31:45.115Z,23.23
2023-01-13T05:32:45.085Z,23.21
2023-01-13T05:33:45.051Z,23.22
2023-01-13T05:34:45.027Z,23.21
2023-01-13T05:35:44.995Z,23.22
2023-01-13T05:36:44.959Z,23.22
2023-01-13T05:37:44.928Z,23.19
2023-01-13T05:38:44.888Z,23.22
2023-01-13T05:39:44.855Z,23.21
2023-01-13T05:40:44.824Z,23.18
2023-01-13T05:41:44.790Z,23.20
2023-01-13T05:42:44.760Z,23.20
2023-01-13T05:43:44.725Z,23.19
2023-01-13T05:44:44.691Z,23.21
2023-01-13T05:45:44.659Z,23.19
2023-01-13T05:46:44.673Z,23.21
2023-01-13T05:47:44.593Z,23.23
2023-01-13T05:48:44.559Z,23.17
2023-01-13T05:49:44.528Z,23.20
2023-01-13T05:50:44.498Z,23.24
2023-01-13T05:51:44.464Z,23.23
2023-01-13T05:52:44.432Z,23.23
2023-01-13T05:53:44.402Z,23.22
2023-01-13T05:54:44.356Z,23.19
2023-01-13T05:55:44.307Z,23.15
2023-01-13T05:56:44.304Z,23.19
2023-01-13T05:57:44.244Z,23.22
2023-01-13T05:58:44.204Z,23.18
2023-01-13T05:59:44.171Z,23.24
2023-01-13T06:00:44.137Z,23.22
2023-01-13T06:01:44.108Z,23.23
2023-01-13T06:02:44.121Z,23.17
2023-01-13T06:03:44.036Z,23.20
2023-01-13T06:04:44.045Z,23.19
2023-01-13T06:05:43.972Z,23.21
2023-01-13T06:06:43.952Z,23.17
2023-01-13T06:07:43.916Z,23.17
2023-01-13T06:08:43.881Z,23.22
2023-01-13T06:09:43.848Z,23.21
2023-01-13T06:10:43.819Z,23.19
2023-01-13T06:11:43.789Z,23.23
2023-01-13T06:12:43.771Z,23.19
2023-01-13T06:13:43.723Z,23.18
2023-01-13T06:14:43.700Z,23.19
2023-01-13T06:15:43.718Z,23.20
2023-01-13T06:16:43.651Z,23.18
2023-01-13T06:17:43.617Z,23.20
2023-01-13T06:18:43.586Z,23.22
2023-01-13T06:19:43.554Z,23.20
2023-01-13T06:20:43.522Z,23.20
2023-01-13T06:21:43.499Z,23.21
2023-01-13T06:22:43.457Z,23.23
2023-01-13T06:23:43.431Z,23.21
2023-01-13T06:24:43.394Z,23.22
2023-01-13T06:25:43.368Z,23.19
2023-01-13T06:27:43.318Z,23.14
2023-01-13T07:06:41.852Z,29.24
2023-01-13T07:07:41.808Z,29.36
2023-01-13T07:09:41.725Z,29.60
2023-01-13T07:10:41.668Z,29.46
2023-01-13T07:17:41.366Z,30.30
2023-01-13T07:22:41.099Z,30.52
2023-01-13T07:23:41.079Z,30.49
2023-01-13T07:24:41.005Z,30.46
2023-01-13T07:25:40.966Z,30.65
2023-01-13T07:26:40.905Z,30.66
2023-01-13T07:27:40.869Z,30.60
2023-01-13T07:28:40.815Z,30.56
2023-01-13T07:29:40.775Z,30.56
2023-01-13T07:30:40.767Z,30.70
2023-01-13T07:31:40.731Z,31.01
2023-01-13T07:32:40.626Z,31.05
2023-01-13T07:33:40.570Z,30.97
2023-01-13T07:34:40.507Z,31.04
2023-01-13T07:35:40.469Z,30.84
2023-01-13T07:36:40.408Z,30.82
2023-01-13T07:37:40.365Z,30.80
2023-01-13T07:38:40.323Z,31.30
2023-01-13T07:39:40.267Z,31.11
2023-01-13T07:40:40.213Z,31.05
2023-01-13T07:41:40.172Z,30.99
2023-01-13T07:42:40.107Z,30.76
2023-01-13T07:43:40.067Z,30.53
2023-01-13T07:44:40.152Z,30.15
2023-01-13T07:45:40.066Z,30.13
2023-01-13T07:46:39.886Z,29.95
2023-01-13T07:47:39.835Z,29.55
2023-01-13T07:48:39.791Z,29.21
2023-01-13T07:49:39.745Z,29.09
2023-01-13T07:50:39.691Z,29.12
2023-01-13T07:51:39.644Z,28.92
2023-01-13T07:52:39.609Z,28.74
2023-01-13T07:53:39.576Z,28.64
2023-01-13T07:54:41.234Z,28.47
2023-01-13T07:55:39.461Z,28.39
2023-01-13T07:56:39.419Z,28.28
2023-01-13T07:57:39.386Z,28.14
2023-01-13T07:58:39.352Z,28.07
2023-01-13T07:59:39.310Z,28.00
2023-01-13T08:00:39.255Z,27.92
2023-01-13T08:01:39.284Z,27.83
2023-01-13T08:02:39.206Z,27.60
2023-01-13T08:03:39.139Z,27.71
2023-01-13T08:04:39.063Z,27.63
2023-01-13T08:05:39.017Z,27.62
2023-01-13T08:06:38.956Z,27.53
2023-01-13T08:07:38.935Z,27.42
2023-01-13T08:37:37.417Z,26.78
2023-01-13T08:40:37.294Z,28.18
2023-01-13T08:41:37.231Z,29.04
2023-01-13T08:42:37.174Z,29.38
2023-01-13T08:43:37.139Z,29.38
2023-01-13T08:44:37.066Z,29.64
2023-01-13T08:45:37.047Z,29.73
2023-01-13T08:46:36.973Z,29.92
2023-01-13T08:47:36.926Z,30.05
2023-01-13T08:48:36.869Z,30.28
2023-01-13T08:49:36.832Z,30.51
2023-01-13T08:50:36.781Z,30.52
2023-01-13T08:51:36.712Z,30.61
2023-01-13T08:52:36.662Z,30.68
2023-01-13T08:53:36.626Z,30.80
2023-01-13T08:54:36.549Z,30.83
2023-01-13T08:55:36.503Z,30.97
2023-01-13T08:56:36.501Z,31.05
2023-01-13T08:57:36.391Z,31.05
2023-01-13T08:58:36.340Z,31.05
2023-01-13T08:59:36.282Z,31.19
2023-01-13T09:00:36.224Z,31.17
2023-01-13T09:01:36.237Z,31.27
2023-01-13T09:02:36.131Z,31.30
2023-01-13T09:03:36.077Z,31.30
2023-01-13T09:04:36.054Z,31.24
2023-01-13T09:05:35.982Z,31.32
2023-01-13T09:06:35.913Z,31.32
2023-01-13T09:07:35.855Z,31.29
2023-01-13T09:08:35.813Z,31.31
2023-01-13T09:09:35.747Z,31.23
2023-01-13T09:10:35.712Z,31.25
2023-01-13T09:11:35.640Z,31.26
2023-01-13T09:12:35.582Z,31.30
2023-01-13T09:13:35.525Z,31.28
2023-01-13T09:14:35.460Z,31.28
2023-01-13T09:15:35.498Z,31.30
2023-01-13T09:16:35.360Z,31.26
2023-01-13T09:17:35.302Z,31.35
2023-01-13T09:18:35.236Z,31.34
2023-01-13T09:19:35.202Z,31.31
2023-01-13T09:20:35.116Z,31.30
2023-01-13T09:21:35.068Z,31.25
2023-01-13T09:22:35.009Z,31.24
2023-01-13T09:23:34.955Z,31.19
2023-01-13T09:24:34.895Z,31.22
2023-01-13T09:25:34.851Z,31.17
2023-01-13T09:26:34.799Z,31.16
2023-01-13T09:27:34.764Z,31.20
2023-01-13T09:28:34.680Z,31.15
2023-01-13T09:29:34.649Z,31.17
2023-01-13T09:30:34.573Z,31.24
2023-01-13T09:31:34.620Z,31.14
2023-01-13T09:32:34.452Z,31.00
2023-01-13T09:33:34.394Z,30.80
2023-01-13T09:34:34.339Z,29.91
2023-01-13T09:35:34.284Z,29.81
2023-01-13T09:36:34.225Z,29.80
2023-01-13T09:37:34.305Z,29.75
2023-01-13T09:38:34.126Z,29.57
2023-01-13T09:39:34.065Z,29.54
2023-01-13T09:40:34.017Z,28.98
2023-01-13T09:41:33.963Z,27.46
2023-01-13T09:42:33.990Z,27.73
2023-01-13T09:43:33.862Z,27.02
2023-01-13T09:44:33.794Z,26.51
2023-01-13T09:45:33.738Z,26.54
2023-01-13T09:46:33.718Z,26.66
2023-01-13T09:47:33.641Z,25.94
2023-01-13T09:48:33.608Z,26.40
2023-01-13T09:49:33.546Z,26.02
2023-01-13T09:50:33.488Z,26.12
2023-01-13T09:51:33.550Z,25.86
2023-01-13T09:52:33.428Z,25.72
2023-01-13T09:53:33.375Z,24.95
2023-01-13T09:54:33.303Z,24.32
2023-01-13T09:55:33.262Z,23.87
2023-01-13T09:56:33.215Z,24.14
2023-01-13T09:57:33.236Z,24.34
2023-01-13T09:58:33.133Z,24.07
2023-01-13T09:59:33.101Z,23.69
2023-01-13T10:00:33.065Z,23.76
2023-01-13T10:01:33.073Z,23.59
2023-01-13T10:02:33.009Z,23.37
2023-01-13T10:03:33.090Z,22.79
2023-01-13T10:04:32.976Z,22.81
2023-01-13T10:05:32.910Z,22.70
2023-01-13T10:06:32.910Z,22.78
2023-01-13T10:07:32.847Z,22.88
2023-01-13T10:08:32.818Z,22.42
2023-01-13T10:09:32.790Z,22.59
2023-01-13T10:10:32.752Z,22.73
2023-01-13T10:11:32.720Z,23.21
2023-01-13T10:12:32.683Z,23.40
2023-01-13T10:13:32.650Z,23.58
2023-01-13T10:14:32.610Z,23.66
2023-01-13T10:15:32.593Z,23.97
2023-01-13T10:16:32.550Z,24.32
2023-01-13T10:17:32.506Z,24.23
2023-01-13T10:18:32.446Z,24.36
2023-01-13T10:19:32.420Z,24.56
2023-01-13T10:20:32.349Z,24.51
2023-01-13T10:21:32.320Z,24.92
2023-01-13T10:22:32.254Z,24.79
2023-01-13T10:23:32.212Z,24.76
2023-01-13T10:24:32.162Z,24.75
2023-01-13T10:25:32.116Z,24.92
2023-01-13T10:26:32.140Z,24.89
2023-01-13T10:27:32.028Z,25.00
2023-01-13T10:28:31.965Z,25.02
2023-01-13T10:29:31.931Z,25.16
2023-01-13T10:30:31.877Z,25.24
2023-01-13T10:31:31.868Z,25.15
2023-01-13T10:32:31.786Z,25.31
2023-01-13T10:33:31.734Z,25.18
2023-01-13T10:34:31.684Z,25.47
2023-01-13T10:35:31.623Z,25.56
2023-01-13T10:36:31.569Z,25.61
2023-01-13T10:37:31.549Z,25.72
2023-01-13T10:38:31.474Z,25.83
2023-01-13T10:39:31.423Z,25.89
2023-01-13T10:40:31.362Z,26.03
2023-01-13T10:41:31.328Z,25.97
2023-01-13T10:42:31.271Z,26.23
2023-01-13T10:43:31.199Z,27.59
2023-01-13T10:44:31.157Z,28.00
2023-01-13T10:45:31.112Z,28.00
2023-01-13T10:46:31.086Z,28.23
2023-01-13T10:47:31.014Z,28.25
2023-01-13T10:48:30.967Z,28.19
2023-01-13T10:49:30.904Z,27.94
2023-01-13T10:50:30.862Z,27.89
2023-01-13T10:51:30.808Z,27.89
2023-01-13T10:52:30.794Z,27.98
2023-01-13T10:53:30.733Z,28.00
2023-01-13T10:54:30.705Z,26.89
2023-01-13T10:55:30.660Z,26.06
2023-01-13T10:56:30.572Z,26.24
2023-01-13T10:57:30.533Z,26.44
2023-01-13T10:58:30.497Z,26.44
2023-01-13T10:59:30.435Z,25.58
2023-01-13T11:00:30.433Z,24.98
2023-01-13T11:01:30.536Z,24.18
2023-01-13T11:02:30.451Z,24.42
2023-01-13T11:03:30.275Z,24.84
2023-01-13T11:04:30.262Z,24.61
2023-01-13T11:05:30.175Z,24.66
2023-01-13T11:06:30.141Z,24.22
2023-01-13T11:07:30.100Z,23.90
2023-01-13T11:08:30.073Z,23.74
2023-01-13T11:09:30.045Z,23.83
2023-01-13T11:10:29.989Z,24.13
2023-01-13T11:11:29.950Z,23.89
2023-01-13T11:12:29.915Z,23.59
2023-01-13T11:13:29.918Z,23.16
2023-01-13T11:14:29.844Z,23.00
2023-01-13T11:15:29.807Z,23.11
2023-01-13T11:16:29.898Z,23.04
2023-01-13T11:17:29.750Z,23.33
2023-01-13T11:18:29.709Z,23.41
2023-01-13T11:19:29.655Z,23.13
2023-01-13T11:20:29.626Z,23.17
2023-01-13T11:21:29.587Z,22.86
2023-01-13T11:22:29.548Z,22.94
2023-01-13T11:23:29.556Z,22.96
2023-01-13T11:24:29.462Z,22.98
2023-01-13T11:25:29.460Z,23.10
2023-01-13T11:26:29.381Z,23.18
2023-01-13T11:27:29.351Z,23.38
2023-01-13T11:28:29.315Z,23.62
2023-01-13T11:29:29.266Z,23.74
2023-01-13T11:30:29.215Z,24.03
2023-01-13T11:31:29.261Z,24.24
2023-01-13T11:32:29.128Z,24.21
2023-01-13T11:33:29.094Z,24.71
2023-01-13T11:34:29.050Z,24.88
2023-01-13T11:35:29.011Z,25.31
2023-01-13T11:36:28.967Z,25.44
2023-01-13T11:37:28.926Z,26.20
2023-01-13T13:58:22.212Z,23.77
2023-01-13T13:59:22.164Z,23.72
2023-01-13T14:00:22.113Z,23.72
2023-01-13T14:01:22.137Z,23.69
2023-01-13T14:02:22.059Z,23.69
2023-01-13T14:03:21.978Z,23.70
2023-01-13T14:04:22.022Z,23.71
2023-01-13T14:05:21.869Z,23.67
2023-01-13T14:06:21.829Z,23.63
2023-01-13T14:07:21.782Z,23.61
2023-01-13T14:08:21.680Z,23.62
2023-01-13T14:09:21.656Z,23.65
2023-01-13T14:10:21.616Z,23.62
2023-01-13T14:11:21.522Z,23.62
2023-01-13T14:12:21.500Z,23.61
2023-01-13T14:13:21.464Z,23.61
2023-01-13T14:14:21.378Z,23.60
2023-01-13T14:15:21.797Z,23.55
2023-01-13T14:16:21.274Z,23.56
2023-01-13T14:17:21.233Z,23.58
2023-01-13T14:18:21.189Z,23.59
2023-01-13T14:19:21.128Z,23.58
2023-01-13T14:20:21.083Z,23.57
2023-01-13T14:21:21.033Z,23.56
2023-01-13T14:22:21.010Z,23.56
2023-01-13T14:23:20.950Z,23.53
2023-01-13T14:24:20.896Z,23.55
2023-01-13T14:25:20.845Z,23.56
2023-01-13T14:26:20.789Z,23.51
2023-01-13T14:27:20.774Z,23.52
2023-01-13T14:28:20.724Z,23.55
2023-01-13T14:29:20.653Z,23.52
2023-01-13T14:30:20.600Z,23.54
2023-01-13T14:31:20.648Z,23.54
2023-01-13T14:32:20.514Z,23.52
2023-01-13T14:33:20.454Z,23.53
2023-01-13T14:34:31.365Z,23.49
2023-01-13T14:36:20.313Z,23.53
2023-01-13T14:37:20.249Z,23.46
2023-01-13T14:38:20.199Z,23.50
2023-01-13T14:39:20.144Z,23.48
2023-01-13T14:40:20.094Z,23.52
2023-01-13T14:41:20.045Z,23.53
2023-01-13T14:42:19.999Z,23.57
2023-01-13T14:43:19.951Z,23.57
2023-01-13T14:44:19.915Z,23.59
2023-01-13T14:45:19.868Z,23.56
2023-01-13T14:46:19.873Z,23.60
2023-01-13T14:47:19.758Z,23.58
2023-01-13T14:48:19.714Z,23.58
2023-01-13T14:49:19.672Z,23.56
2023-01-13T14:50:19.612Z,23.58
2023-01-13T14:51:19.574Z,23.59
2023-01-13T14:52:19.519Z,23.61
2023-01-13T14:53:19.478Z,23.56
2023-01-13T14:54:19.440Z,23.54
2023-01-13T14:55:19.376Z,23.57
2023-01-13T14:56:19.328Z,23.62
2023-01-13T14:57:19.278Z,23.65
2023-01-13T14:58:19.229Z,23.68
2023-01-13T14:59:19.192Z,23.66
2023-01-13T15:00:19.142Z,23.67
2023-01-13T15:01:19.171Z,23.68
2023-01-13T15:02:19.043Z,23.69
2023-01-13T15:03:18.996Z,23.71
2023-01-13T15:04:18.955Z,23.71
2023-01-13T19:10:09.072Z,24.57
2023-01-13T19:11:09.033Z,24.60
2023-01-13T19:12:09.019Z,24.59
2023-01-13T19:13:08.949Z,24.60
2023-01-13T19:14:08.917Z,24.61
2023-01-13T19:41:07.886Z,24.72
2023-01-13T20:33:05.931Z,24.64
2023-01-13T22:03:02.873Z,24.81
2023-01-13T23:57:59.080Z,24.90
2023-01-13T23:58:59.092Z,24.87
2023-01-13T23:59:59.009Z,24.89
